createdAt,value
2023-03-25T00:00:00.175Z,2.39
2023-03-25T00:02:30.356Z,2.60
2023-03-25T00:05:00.861Z,2.68
2023-03-25T00:07:28.880Z,2.78
2023-03-25T00:09:56.809Z,2.68
2023-03-25T00:12:26.553Z,2.31
2023-03-25T00:14:55.542Z,2.54
2023-03-25T00:17:23.930Z,2.48
2023-03-25T00:19:52.186Z,2.43
2023-03-25T00:22:20.840Z,2.35
2023-03-25T00:24:49.292Z,2.25
2023-03-25T00:27:17.720Z,1.69
2023-03-25T00:29:47.822Z,1.17
2023-03-25T00:32:18.733Z,1.66
2023-03-25T00:34:48.216Z,1.66
2023-03-25T00:37:18.307Z,2.03
2023-03-25T00:39:46.995Z,2.01
2023-03-25T00:42:17.447Z,2.00
2023-03-25T00:44:46.733Z,1.96
2023-03-25T00:47:18.830Z,1.79
2023-03-25T00:49:46.795Z,1.92
2023-03-25T00:52:15.929Z,1.92
2023-03-25T00:54:46.030Z,1.85
2023-03-25T00:57:14.214Z,1.32
2023-03-25T00:59:42.095Z,1.74
2023-03-25T01:02:11.752Z,1.70
2023-03-25T01:04:42.401Z,1.70
2023-03-25T01:07:11.079Z,1.53
2023-03-25T01:09:41.690Z,1.65
2023-03-25T01:12:09.900Z,1.67
2023-03-25T01:14:37.781Z,1.55
2023-03-25T01:17:06.628Z,1.59
2023-03-25T01:19:35.903Z,1.39
2023-03-25T01:22:04.275Z,1.12
2023-03-25T01:24:32.695Z,1.53
2023-03-25T01:27:01.213Z,0.94
2023-03-25T01:29:29.088Z,1.42
2023-03-25T01:31:57.685Z,1.24
2023-03-25T01:34:26.217Z,1.39
2023-03-25T01:36:56.478Z,1.35
2023-03-25T01:39:24.451Z,0.74
2023-03-25T01:41:55.277Z,1.29
2023-03-25T01:45:00.749Z,1.27
2023-03-25T01:47:28.988Z,0.69
2023-03-25T01:49:57.066Z,0.87
2023-03-25T01:52:29.828Z,0.65
2023-03-25T01:55:00.350Z,1.27
2023-03-25T01:57:31.653Z,0.55
2023-03-25T01:59:59.655Z,1.16
2023-03-25T02:02:35.100Z,1.05
2023-03-25T02:05:10.603Z,1.32
2023-03-25T02:07:46.911Z,1.32
2023-03-25T02:10:15.447Z,1.29
2023-03-25T02:12:45.687Z,1.27
2023-03-25T02:15:16.195Z,0.98
2023-03-25T02:18:10.228Z,1.20
2023-03-25T02:21:18.374Z,1.28
2023-03-25T02:24:03.233Z,1.14
2023-03-25T02:27:14.525Z,-0.14
2023-03-25T02:30:16.728Z,1.19
2023-03-25T02:33:03.905Z,1.06
2023-03-25T02:35:50.174Z,1.11
2023-03-25T02:38:32.506Z,1.06
2023-03-25T02:41:06.487Z,0.43
2023-03-25T02:43:40.158Z,0.94
2023-03-25T02:46:13.225Z,0.55
2023-03-25T02:48:49.625Z,0.89
2023-03-25T02:51:22.535Z,0.68
2023-03-25T02:53:53.692Z,0.81
2023-03-25T02:56:25.724Z,0.79
2023-03-25T02:58:56.553Z,0.78
2023-03-25T03:01:27.189Z,0.77
2023-03-25T03:03:55.560Z,0.75
2023-03-25T03:06:25.477Z,0.74
2023-03-25T03:09:09.685Z,0.76
2023-03-25T03:11:46.669Z,0.78
2023-03-25T03:14:29.465Z,0.76
2023-03-25T03:17:08.426Z,0.76
2023-03-25T03:19:41.690Z,0.64
2023-03-25T03:22:22.373Z,0.45
2023-03-25T03:24:56.295Z,0.79
2023-03-25T03:27:34.101Z,0.81
2023-03-25T03:30:09.340Z,0.27
2023-03-25T03:32:45.828Z,0.78
2023-03-25T03:35:18.542Z,0.76
2023-03-25T03:37:51.400Z,0.74
2023-03-25T03:40:24.379Z,0.72
2023-03-25T03:42:57.567Z,0.53
2023-03-25T03:45:32.576Z,-0.20
2023-03-25T03:48:03.681Z,0.61
2023-03-25T03:50:36.722Z,0.60
2023-03-25T03:53:09.353Z,0.58
2023-03-25T03:55:42.678Z,0.59
2023-03-25T03:58:16.414Z,0.59
2023-03-25T04:00:52.778Z,0.61
2023-03-25T04:03:28.497Z,0.47
2023-03-25T04:06:06.702Z,0.41
2023-03-25T04:08:42.911Z,0.55
2023-03-25T04:11:20.930Z,0.28
2023-03-25T04:13:53.371Z,0.72
2023-03-25T04:16:21.309Z,0.10
2023-03-25T04:18:49.177Z,0.71
2023-03-25T04:21:17.705Z,0.70
2023-03-25T04:23:46.267Z,0.33
2023-03-25T04:26:15.661Z,0.35
2023-03-25T04:28:44.725Z,0.12
2023-03-25T04:31:16.201Z,0.42
2023-03-25T04:33:48.673Z,0.64
2023-03-25T04:36:18.335Z,0.61
2023-03-25T04:38:46.848Z,0.45
2023-03-25T04:41:17.567Z,0.56
2023-03-25T04:43:45.625Z,0.50
2023-03-25T04:46:15.842Z,0.55
2023-03-25T04:48:45.270Z,0.53
2023-03-25T04:51:13.938Z,0.48
2023-03-25T04:53:42.974Z,0.49
2023-03-25T04:56:16.401Z,0.51
2023-03-25T04:58:46.703Z,0.52
2023-03-25T05:01:23.391Z,0.43
2023-03-25T05:03:51.688Z,-0.18
2023-03-25T05:06:19.609Z,0.60
2023-03-25T05:08:47.599Z,0.60
2023-03-25T05:11:15.612Z,0.60
2023-03-25T05:13:43.451Z,0.60
2023-03-25T05:16:12.843Z,0.59
2023-03-25T05:18:40.942Z,0.58
2023-03-25T05:21:09.036Z,-0.18
2023-03-25T05:23:36.943Z,0.63
2023-03-25T05:26:06.264Z,0.65
2023-03-25T05:28:34.204Z,0.69
2023-03-25T05:31:08.337Z,0.68
2023-03-25T05:33:42.874Z,0.66
2023-03-25T05:36:12.116Z,0.65
2023-03-25T05:38:41.946Z,0.53
2023-03-25T05:41:12.195Z,0.63
2023-03-25T05:43:40.101Z,0.66
2023-03-25T05:46:08.402Z,0.67
2023-03-25T05:48:37.739Z,0.71
2023-03-25T05:51:13.683Z,0.74
2023-03-25T05:53:43.699Z,0.76
2023-03-25T05:56:12.391Z,0.79
2023-03-25T05:58:40.528Z,0.55
2023-03-25T06:01:17.041Z,0.84
2023-03-25T06:03:55.192Z,0.83
2023-03-25T06:06:25.949Z,0.76
2023-03-25T06:08:54.074Z,0.72
2023-03-25T06:11:22.000Z,0.75
2023-03-25T06:13:50.848Z,0.51
2023-03-25T06:16:21.470Z,0.81
2023-03-25T06:18:56.258Z,0.53
2023-03-25T06:21:26.595Z,0.76
2023-03-25T06:23:55.210Z,0.91
2023-03-25T06:26:24.561Z,0.57
2023-03-25T06:28:52.525Z,0.59
2023-03-25T06:31:22.805Z,1.00
2023-03-25T06:33:51.792Z,1.04
2023-03-25T06:36:20.608Z,1.08
2023-03-25T06:38:51.824Z,1.07
2023-03-25T06:41:21.051Z,1.13
2023-03-25T06:43:49.274Z,0.99
2023-03-25T06:46:18.024Z,1.14
2023-03-25T06:48:45.967Z,1.32
2023-03-25T06:51:14.059Z,0.77
2023-03-25T06:53:41.990Z,1.18
2023-03-25T06:56:11.688Z,1.29
2023-03-25T06:58:41.603Z,1.29
2023-03-25T07:01:09.458Z,1.27
2023-03-25T07:03:38.685Z,0.88
2023-03-25T07:06:07.686Z,1.04
2023-03-25T07:08:36.178Z,1.29
2023-03-25T07:11:05.268Z,1.25
2023-03-25T07:13:34.974Z,0.95
2023-03-25T07:16:03.340Z,1.04
2023-03-25T07:18:31.867Z,1.37
2023-03-25T07:21:00.410Z,0.79
2023-03-25T07:23:28.577Z,0.88
2023-03-25T07:25:57.015Z,1.40
2023-03-25T07:28:25.080Z,1.47
2023-03-25T07:30:54.325Z,1.55
2023-03-25T07:33:22.333Z,1.42
2023-03-25T07:35:50.618Z,1.14
2023-03-25T07:38:18.648Z,1.62
2023-03-25T07:40:50.358Z,1.42
2023-03-25T07:43:18.627Z,1.93
2023-03-25T07:45:46.468Z,2.04
2023-03-25T07:48:18.554Z,2.11
2023-03-25T07:50:49.398Z,2.08
2023-03-25T07:53:17.579Z,2.03
2023-03-25T07:55:46.521Z,2.03
2023-03-25T07:58:14.594Z,1.48
2023-03-25T08:00:42.588Z,2.02
2023-03-25T08:03:11.857Z,2.04
2023-03-25T08:05:46.687Z,2.05
2023-03-25T08:08:14.809Z,2.07
2023-03-25T08:10:44.078Z,2.09
2023-03-25T08:13:12.242Z,2.09
2023-03-25T08:15:40.364Z,1.86
2023-03-25T08:18:08.640Z,1.57
2023-03-25T08:20:37.030Z,2.12
2023-03-25T08:23:10.520Z,2.17
2023-03-25T08:25:38.965Z,1.91
2023-03-25T08:28:07.153Z,2.03
2023-03-25T08:30:39.941Z,2.14
2023-03-25T08:33:08.624Z,2.10
2023-03-25T08:35:37.757Z,1.97
2023-03-25T08:38:07.174Z,1.99
2023-03-25T08:40:35.978Z,1.95
2023-03-25T08:43:06.236Z,1.87
2023-03-25T08:45:35.087Z,0.95
2023-03-25T08:48:03.325Z,1.67
2023-03-25T08:50:31.561Z,1.35
2023-03-25T08:52:59.579Z,1.91
2023-03-25T08:55:28.858Z,1.89
2023-03-25T08:57:56.658Z,1.86
2023-03-25T09:00:26.574Z,1.83
2023-03-25T09:02:54.731Z,1.80
2023-03-25T09:05:22.740Z,1.67
2023-03-25T09:07:50.718Z,1.32
2023-03-25T09:10:18.682Z,1.79
2023-03-25T09:12:47.907Z,1.36
2023-03-25T09:15:15.864Z,1.89
2023-03-25T09:17:43.910Z,1.87
2023-03-25T09:20:12.506Z,1.85
2023-03-25T09:22:41.014Z,1.79
2023-03-25T09:25:10.152Z,1.10
2023-03-25T09:27:38.273Z,2.01
2023-03-25T09:30:09.809Z,2.00
2023-03-25T09:32:38.397Z,1.61
2023-03-25T09:35:07.087Z,1.76
2023-03-25T09:37:35.482Z,2.01
2023-03-25T09:40:07.330Z,2.03
2023-03-25T09:42:46.248Z,2.08
2023-03-25T09:45:28.863Z,2.07
2023-03-25T09:48:03.258Z,1.85
2023-03-25T09:50:33.114Z,1.98
2023-03-25T09:53:06.237Z,1.93
2023-03-25T09:55:40.559Z,1.41
2023-03-25T09:58:36.679Z,1.69
2023-03-25T10:01:20.294Z,1.89
2023-03-25T10:04:06.282Z,1.90
2023-03-25T10:06:40.215Z,1.77
2023-03-25T10:09:32.799Z,1.91
2023-03-25T10:12:12.567Z,1.26
2023-03-25T10:15:00.983Z,1.89
2023-03-25T10:17:43.339Z,1.89
2023-03-25T10:20:19.991Z,1.87
2023-03-25T10:23:02.075Z,1.80
2023-03-25T10:25:34.775Z,1.75
2023-03-25T10:28:05.719Z,1.73
2023-03-25T10:30:37.354Z,1.70
2023-03-25T10:33:16.846Z,1.66
2023-03-25T10:35:49.375Z,1.61
2023-03-25T10:38:20.890Z,1.12
2023-03-25T10:40:53.147Z,1.37
2023-03-25T10:43:28.324Z,1.09
2023-03-25T10:46:01.794Z,1.37
2023-03-25T10:48:32.648Z,1.31
2023-03-25T10:51:07.015Z,1.32
2023-03-25T10:53:35.677Z,1.12
2023-03-25T10:56:08.793Z,-0.21
2023-03-25T10:58:39.386Z,1.34
2023-03-25T11:01:12.753Z,1.34
2023-03-25T11:03:45.064Z,1.34
2023-03-25T11:06:23.670Z,1.24
2023-03-25T11:08:59.294Z,1.19
2023-03-25T11:11:33.615Z,1.33
2023-03-25T11:14:02.507Z,1.27
2023-03-25T11:16:35.063Z,0.49
2023-03-25T11:19:05.929Z,1.20
2023-03-25T11:21:36.534Z,0.81
2023-03-25T11:24:08.137Z,0.58
2023-03-25T11:26:39.886Z,1.09
2023-03-25T11:29:14.462Z,1.04
2023-03-25T11:31:43.959Z,0.92
2023-03-25T11:34:20.554Z,0.96
2023-03-25T11:36:56.406Z,0.88
2023-03-25T11:39:30.752Z,0.41
2023-03-25T11:41:59.761Z,0.98
2023-03-25T11:44:30.197Z,0.94
2023-03-25T11:47:04.191Z,0.88
2023-03-25T11:49:37.328Z,0.81
2023-03-25T11:52:09.389Z,0.79
2023-03-25T11:54:38.667Z,0.64
2023-03-25T11:57:12.388Z,0.59
2023-03-25T11:59:45.632Z,0.60
2023-03-25T12:02:24.738Z,0.80
2023-03-25T12:04:59.615Z,0.51
2023-03-25T12:07:27.642Z,0.73
2023-03-25T12:09:57.316Z,0.69
2023-03-25T12:12:44.597Z,0.81
2023-03-25T12:15:22.526Z,0.86
2023-03-25T12:18:05.626Z,0.90
2023-03-25T12:20:44.005Z,0.70
2023-03-25T12:23:21.798Z,0.98
2023-03-25T12:25:58.905Z,1.07
2023-03-25T12:28:47.661Z,1.12
2023-03-25T12:31:29.507Z,1.17
2023-03-25T12:34:10.436Z,1.21
2023-03-25T12:36:51.549Z,1.22
2023-03-25T12:39:42.780Z,0.84
2023-03-25T12:42:25.714Z,1.22
2023-03-25T12:45:18.147Z,1.24
2023-03-25T12:47:56.518Z,1.23
2023-03-25T12:50:37.587Z,1.22
2023-03-25T12:53:23.387Z,1.12
2023-03-25T12:56:06.171Z,1.22
2023-03-25T12:59:03.737Z,1.18
2023-03-25T13:01:40.569Z,1.14
2023-03-25T13:04:28.410Z,1.13
2023-03-25T13:07:02.125Z,1.16
2023-03-25T13:09:36.131Z,1.17
2023-03-25T13:12:11.667Z,1.16
2023-03-25T13:14:46.000Z,0.70
2023-03-25T13:17:22.461Z,1.15
2023-03-25T13:20:04.190Z,1.02
2023-03-25T13:22:36.581Z,0.89
2023-03-25T13:25:08.346Z,1.01
2023-03-25T13:27:42.720Z,0.10
2023-03-25T13:30:21.234Z,0.95
2023-03-25T13:32:55.009Z,0.64
2023-03-25T13:35:35.272Z,0.68
2023-03-25T13:38:08.183Z,0.57
2023-03-25T13:40:44.535Z,0.61
2023-03-25T13:43:22.785Z,0.90
2023-03-25T13:45:56.259Z,0.64
2023-03-25T13:48:28.876Z,0.90
2023-03-25T13:50:58.980Z,0.12
2023-03-25T13:53:33.232Z,0.94
2023-03-25T13:56:27.589Z,0.96
2023-03-25T13:59:15.161Z,0.95
2023-03-25T14:02:11.053Z,0.88
2023-03-25T14:04:59.142Z,0.22
2023-03-25T14:08:01.807Z,0.63
2023-03-25T14:10:40.552Z,0.87
2023-03-25T14:13:15.078Z,0.60
2023-03-25T14:15:53.459Z,0.83
2023-03-25T14:18:22.533Z,0.66
2023-03-25T14:20:51.638Z,0.82
2023-03-25T14:23:23.278Z,0.83
2023-03-25T14:25:55.930Z,0.89
2023-03-25T14:28:37.611Z,0.94
2023-03-25T14:31:30.385Z,0.86
2023-03-25T14:34:23.428Z,0.58
2023-03-25T14:37:30.594Z,0.83
2023-03-25T14:40:00.929Z,-0.07
2023-03-25T14:42:45.110Z,0.56
2023-03-25T14:45:42.384Z,0.83
2023-03-25T14:48:26.427Z,0.80
2023-03-25T14:51:20.954Z,-0.52
2023-03-25T14:53:56.378Z,0.72
2023-03-25T14:56:27.544Z,0.67
2023-03-25T14:58:58.374Z,0.67
2023-03-25T15:01:32.829Z,0.68
2023-03-25T15:04:14.440Z,0.56
2023-03-25T15:06:44.675Z,-0.25
2023-03-25T15:09:16.514Z,0.51
2023-03-25T15:11:46.575Z,0.74
2023-03-25T15:14:18.032Z,0.58
2023-03-25T15:17:01.478Z,0.43
2023-03-25T15:19:30.050Z,0.92
2023-03-25T15:22:19.466Z,0.27
2023-03-25T15:24:57.091Z,0.91
2023-03-25T15:27:54.982Z,0.89
2023-03-25T15:30:41.776Z,0.91
2023-03-25T15:33:24.811Z,0.91
2023-03-25T15:36:01.854Z,0.71
2023-03-25T15:38:44.521Z,0.76
2023-03-25T15:41:27.453Z,0.69
2023-03-25T15:44:24.429Z,0.78
2023-03-25T15:47:13.500Z,-0.12
2023-03-25T15:50:07.878Z,0.31
2023-03-25T15:52:56.826Z,-1.09
2023-03-25T15:55:29.991Z,0.51
2023-03-25T15:58:06.739Z,0.65
2023-03-25T16:00:43.286Z,0.70
2023-03-25T16:03:16.499Z,0.71
2023-03-25T16:05:54.189Z,-0.41
2023-03-25T16:08:32.892Z,0.63
2023-03-25T16:11:15.776Z,0.61
2023-03-25T16:13:43.935Z,0.15
2023-03-25T16:16:17.696Z,0.36
2023-03-25T16:18:50.542Z,0.61
2023-03-25T16:21:25.544Z,0.27
2023-03-25T16:24:04.909Z,0.57
2023-03-25T16:26:39.465Z,0.57
2023-03-25T16:29:11.683Z,0.59
2023-03-25T16:31:43.846Z,-0.05
2023-03-25T16:34:17.572Z,0.54
2023-03-25T16:36:49.063Z,0.39
2023-03-25T16:39:18.272Z,0.56
2023-03-25T16:41:47.506Z,-1.70
2023-03-25T16:44:21.240Z,0.23
2023-03-25T16:46:50.384Z,0.49
2023-03-25T16:49:26.416Z,-0.53
2023-03-25T16:51:56.381Z,-0.14
2023-03-25T16:54:32.497Z,-2.44
2023-03-25T16:57:02.126Z,-1.07
2023-03-25T16:59:34.039Z,-0.11
2023-03-25T17:02:03.617Z,-0.25
2023-03-25T17:04:42.263Z,-0.17
2023-03-25T17:07:18.311Z,-0.15
2023-03-25T17:09:51.730Z,0.23
2023-03-25T17:12:22.350Z,0.23
2023-03-25T17:14:53.838Z,-0.32
2023-03-25T17:17:37.572Z,0.22
2023-03-25T17:20:09.329Z,0.17
2023-03-25T17:22:40.438Z,-0.32
2023-03-25T17:25:18.887Z,0.17
2023-03-25T17:27:49.221Z,0.17
2023-03-25T17:30:20.967Z,-0.48
2023-03-25T17:32:49.476Z,-1.58
2023-03-25T17:35:21.820Z,-0.25
2023-03-25T17:37:51.873Z,0.12
2023-03-25T17:40:23.521Z,-0.88
2023-03-25T17:42:51.499Z,0.08
2023-03-25T17:45:19.968Z,0.10
2023-03-25T17:47:47.985Z,0.11
2023-03-25T17:50:17.658Z,-0.34
2023-03-25T17:52:45.748Z,-0.34
2023-03-25T17:55:15.357Z,0.05
2023-03-25T17:57:43.502Z,0.05
2023-03-25T18:00:18.665Z,0.00
2023-03-25T18:02:47.887Z,-0.60
2023-03-25T18:05:16.164Z,-0.47
2023-03-25T18:07:44.476Z,-0.02
2023-03-25T18:10:19.789Z,-0.03
2023-03-25T18:12:47.994Z,-0.02
2023-03-25T18:15:16.059Z,-0.49
2023-03-25T18:17:44.169Z,-0.06
2023-03-25T18:20:17.023Z,-0.07
2023-03-25T18:22:45.359Z,-0.92
2023-03-25T18:25:14.032Z,-0.09
2023-03-25T18:27:44.413Z,-0.09
2023-03-25T18:30:21.263Z,-0.84
2023-03-25T18:32:49.583Z,-0.10
2023-03-25T18:35:18.424Z,-1.61
2023-03-25T18:37:48.634Z,-0.84
2023-03-25T18:40:23.539Z,-0.83
2023-03-25T18:42:53.219Z,-0.20
2023-03-25T18:45:22.338Z,-0.21
2023-03-25T18:47:50.617Z,-0.19
2023-03-25T18:50:24.964Z,-0.20
2023-03-25T18:52:52.963Z,-0.22
2023-03-25T18:55:20.935Z,-0.79
2023-03-25T18:57:48.779Z,-0.46
2023-03-25T19:00:23.989Z,-0.24
2023-03-25T19:02:53.065Z,-0.25
2023-03-25T19:05:21.630Z,-1.05
2023-03-25T19:07:50.356Z,-0.46
2023-03-25T19:10:21.623Z,-0.32
2023-03-25T19:12:49.911Z,-0.34
2023-03-25T19:15:21.043Z,-0.34
2023-03-25T19:17:50.038Z,-0.37
2023-03-25T19:20:20.845Z,-0.44
2023-03-25T19:22:49.512Z,-0.66
2023-03-25T19:25:18.770Z,-0.98
2023-03-25T19:27:47.696Z,-1.10
2023-03-25T19:30:17.906Z,-0.50
2023-03-25T19:32:48.074Z,-0.51
2023-03-25T19:35:17.943Z,-0.54
2023-03-25T19:37:50.977Z,-0.54
2023-03-25T19:40:22.114Z,-0.57
2023-03-25T19:42:51.460Z,-0.58
2023-03-25T19:45:20.522Z,-0.61
2023-03-25T19:47:52.422Z,-0.61
2023-03-25T19:50:21.966Z,-0.64
2023-03-25T19:52:51.683Z,-0.80
2023-03-25T19:55:21.256Z,-0.63
2023-03-25T19:57:50.017Z,-0.64
2023-03-25T20:00:20.630Z,-0.65
2023-03-25T20:03:23.113Z,-0.64
2023-03-25T20:06:03.513Z,-0.88
2023-03-25T20:08:32.190Z,-0.66
2023-03-25T20:11:01.158Z,-0.70
2023-03-25T20:13:29.336Z,-0.72
2023-03-25T20:15:57.264Z,-0.72
2023-03-25T20:18:26.688Z,-0.70
2023-03-25T20:20:54.515Z,-0.71
2023-03-25T20:23:22.959Z,-0.72
2023-03-25T20:25:52.549Z,-0.74
2023-03-25T20:28:20.521Z,-0.77
2023-03-25T20:30:48.592Z,-0.92
2023-03-25T20:33:16.551Z,-0.77
2023-03-25T20:35:45.963Z,-0.90
2023-03-25T20:38:14.453Z,-1.08
2023-03-25T20:40:45.013Z,-1.03
2023-03-25T20:43:14.851Z,-0.91
2023-03-25T20:45:43.876Z,-0.76
2023-03-25T20:48:11.985Z,-2.02
2023-03-25T20:50:40.476Z,-0.92
2023-03-25T20:53:09.957Z,-0.83
2023-03-25T20:55:37.862Z,-0.81
2023-03-25T20:58:08.790Z,-1.62
2023-03-25T21:00:37.562Z,-0.89
2023-03-25T21:03:06.240Z,-0.89
2023-03-25T21:05:34.420Z,-1.53
2023-03-25T21:08:02.809Z,-1.82
2023-03-25T21:10:32.052Z,-0.94
2023-03-25T21:12:59.977Z,-0.95
2023-03-25T21:15:28.898Z,-0.96
2023-03-25T21:17:56.841Z,-1.00
2023-03-25T21:20:27.958Z,-0.98
2023-03-25T21:22:57.336Z,-1.27
2023-03-25T21:25:25.295Z,-0.96
2023-03-25T21:27:54.502Z,-1.00
2023-03-25T21:30:22.731Z,-1.67
2023-03-25T21:32:50.623Z,-1.53
2023-03-25T21:35:18.590Z,-1.05
2023-03-25T21:37:47.218Z,-1.07
2023-03-25T21:40:15.372Z,-1.07
2023-03-25T21:42:47.134Z,-1.58
2023-03-25T21:45:18.251Z,-1.23
2023-03-25T21:50:21.836Z,-1.76
2023-03-25T21:52:49.781Z,-1.10
2023-03-25T21:55:19.593Z,-1.11
2023-03-25T21:58:05.548Z,-1.08
2023-03-25T22:00:46.234Z,-1.09
2023-03-25T22:03:17.369Z,-1.09
2023-03-25T22:05:45.972Z,-1.65
2023-03-25T22:08:26.292Z,-1.12
2023-03-25T22:11:02.301Z,-1.28
2023-03-25T22:13:30.562Z,-1.14
2023-03-25T22:16:00.041Z,-1.55
2023-03-25T22:18:29.107Z,-1.15
2023-03-25T22:21:07.060Z,-1.16
2023-03-25T22:23:35.159Z,-1.17
2023-03-25T22:26:03.590Z,-1.18
2023-03-25T22:28:31.691Z,-1.56
2023-03-25T22:31:01.519Z,-1.60
2023-03-25T22:33:30.731Z,-1.19
2023-03-25T22:36:09.063Z,-1.18
2023-03-25T22:38:37.108Z,-1.18
2023-03-25T22:41:06.021Z,-1.17
2023-03-25T22:43:39.087Z,-1.17
2023-03-25T22:46:11.683Z,-1.17
2023-03-25T22:48:40.245Z,-1.83
2023-03-25T22:51:15.618Z,-1.15
2023-03-25T22:53:43.901Z,-1.69
2023-03-25T22:56:12.895Z,-1.14
2023-03-25T22:58:41.502Z,-1.14
2023-03-25T23:01:20.072Z,-1.29
2023-03-25T23:03:48.534Z,-1.14
2023-03-25T23:06:17.120Z,-1.30
2023-03-25T23:08:45.322Z,-1.32
2023-03-25T23:11:17.144Z,-1.18
2023-03-25T23:13:48.079Z,-2.57
2023-03-25T23:16:20.538Z,-1.21
2023-03-25T23:18:49.202Z,-1.39
2023-03-25T23:21:20.064Z,-1.73
2023-03-25T23:23:52.198Z,-1.63
2023-03-25T23:26:24.841Z,-1.66
2023-03-25T23:28:54.697Z,-1.54
2023-03-25T23:31:28.610Z,-1.34
2023-03-25T23:33:58.472Z,-1.22
2023-03-25T23:36:28.396Z,-1.25
2023-03-25T23:38:56.855Z,-1.24
2023-03-25T23:41:25.937Z,-1.44
2023-03-25T23:43:55.977Z,-1.25
2023-03-25T23:46:27.361Z,-1.26
2023-03-25T23:48:55.950Z,-1.42
2023-03-25T23:51:25.567Z,-1.30
2023-03-25T23:53:53.956Z,-1.28
2023-03-25T23:56:24.699Z,-1.71
2023-03-25T23:58:53.243Z,-1.88
